Decoded Metar for KCGS (COLLEGE PARK in MD, USA) (IATA:CGS) | Meteo·Mobile Aviation Weather
aviador You're here:

KCGS Decoded Metar

COLLEGE PARK in MD, USA
Report Time2018-10-20 05:02:00
UTC Time2018-10-20 05:22:25
Flight Rules vfr VFR
Wind190° at 03 kt
W.Decomp.*RWY 15: 1.9 kt HW 2.3 kt RCW
W.Rank190° ranks 6
Current wind is below 190° avg. (5.0)
Visibility9999 m
Phenomena:N/A
Clouds:Overcast 090 Hf
Expected CloudBase > 1,200 ft AGL from Temp-Dew spread
Ceiling9,000 ft
Temp13°C (ISA -2)
Dew Point10°C (82% RH)
AAT12.0°C
QNH1013 hPa
Density Alt-13 ft
Elevation49 ft
Report Wrong Elevation
Raw Report
KCGS 200502Z AUTO 19003KT 10SM OVC090 13/10 A2991 RMK AO1
T01320096=

Extra information for KCGS:More info

Metar Taf Metar & Taf Last 4 Metars F.Rules Stats Wind Profile Meteogram Temp Stats Airport Information Weather charts Add Link Nearby VenuesMetar ALERT Operation Metar Decoded Social comments

AIRNAV info for KCGS